SEJ091 VOMM-VOBL
Flight info
| Callsign | SEJ091 |
|---|---|
| Flight time | 0h 38m |
| Altitude | 20000 |
| Route | MMV W117 BIA |
| Aircraft | B738/M-SDE2E3FGHIRWXY/LB1 |
Departure
| Time | 2026-04-22 10:17 |
|---|---|
| Airport | Chennai International Airport (VOMM) |
Arrival
| Time | 2026-04-22 10:55 |
|---|---|
| Airport | Kempegowda International Airport Bengaluru (VOBL) |
| Time | Latitude | Longitude | Altitude | Speed | Heading |
|---|---|---|---|---|---|
| 2026-04-22 10:00 | 12.98465 | 80.16600 | 51 ft | 0 kts | 159° |
| 2026-04-22 10:06 | 12.98471 | 80.16597 | 49 ft | 2 kts | 159° |
| 2026-04-22 10:06 | 12.98487 | 80.16592 | 52 ft | 2 kts | 165° |
| 2026-04-22 10:07 | 12.98503 | 80.16589 | 49 ft | 2 kts | 174° |
| 2026-04-22 10:07 | 12.98519 | 80.16590 | 50 ft | 2 kts | 210° |
| 2026-04-22 10:07 | 12.98529 | 80.16601 | 47 ft | 1 kts | 246° |
| 2026-04-22 10:07 | 12.98531 | 80.16605 | 54 ft | 0 kts | 248° |
| 2026-04-22 10:10 | 12.98531 | 80.16604 | 54 ft | 0 kts | 249° |
| 2026-04-22 10:11 | 12.98527 | 80.16594 | 48 ft | 3 kts | 250° |
| 2026-04-22 10:11 | 12.98516 | 80.16562 | 50 ft | 6 kts | 249° |
| 2026-04-22 10:11 | 12.98496 | 80.16508 | 51 ft | 9 kts | 249° |
| 2026-04-22 10:11 | 12.98469 | 80.16437 | 49 ft | 12 kts | 249° |
| 2026-04-22 10:12 | 12.98437 | 80.16348 | 50 ft | 15 kts | 250° |
| 2026-04-22 10:12 | 12.98400 | 80.16242 | 53 ft | 17 kts | 250° |
| 2026-04-22 10:12 | 12.98391 | 80.16217 | 54 ft | 5 kts | 249° |
| 2026-04-22 10:12 | 12.98407 | 80.16169 | 53 ft | 9 kts | 330° |
| 2026-04-22 10:13 | 12.98461 | 80.16145 | 49 ft | 8 kts | 342° |
| 2026-04-22 10:13 | 12.98510 | 80.16116 | 54 ft | 8 kts | 302° |
| 2026-04-22 10:13 | 12.98502 | 80.16056 | 50 ft | 9 kts | 248° |
| 2026-04-22 10:13 | 12.98475 | 80.15986 | 53 ft | 12 kts | 249° |
| 2026-04-22 10:14 | 12.98443 | 80.15903 | 54 ft | 14 kts | 249° |
| 2026-04-22 10:14 | 12.98405 | 80.15809 | 52 ft | 15 kts | 246° |
| 2026-04-22 10:14 | 12.98363 | 80.15708 | 52 ft | 16 kts | 249° |
| 2026-04-22 10:14 | 12.98377 | 80.15595 | 51 ft | 17 kts | 286° |
| 2026-04-22 10:15 | 12.98387 | 80.15558 | 49 ft | 0 kts | 285° |
| 2026-04-22 10:15 | 12.98387 | 80.15557 | 49 ft | 1 kts | 285° |
| 2026-04-22 10:15 | 12.98391 | 80.15541 | 51 ft | 5 kts | 285° |
| 2026-04-22 10:15 | 12.98410 | 80.15473 | 55 ft | 13 kts | 294° |
| 2026-04-22 10:16 | 12.98480 | 80.15461 | 55 ft | 11 kts | 62° |
| 2026-04-22 10:16 | 12.98508 | 80.15541 | 53 ft | 18 kts | 70° |
| 2026-04-22 10:16 | 12.98589 | 80.15759 | 50 ft | 60 kts | 70° |
| 2026-04-22 10:16 | 12.98846 | 80.16446 | 55 ft | 144 kts | 69° |
| 2026-04-22 10:17 | 12.99299 | 80.17555 | 579 ft | 177 kts | 75° |
| 2026-04-22 10:17 | 12.99796 | 80.18725 | 1646 ft | 185 kts | 70° |
| 2026-04-22 10:17 | 13.00315 | 80.19885 | 2700 ft | 176 kts | 68° |
| 2026-04-22 10:17 | 13.00942 | 80.20990 | 3411 ft | 194 kts | 42° |
| 2026-04-22 10:18 | 13.02287 | 80.21514 | 3704 ft | 226 kts | 0° |
| 2026-04-22 10:18 | 13.03826 | 80.20949 | 3957 ft | 251 kts | 321° |
| 2026-04-22 10:18 | 13.04765 | 80.19420 | 4499 ft | 261 kts | 286° |
| 2026-04-22 10:18 | 13.05142 | 80.17541 | 4868 ft | 281 kts | 280° |
| 2026-04-22 10:19 | 13.05459 | 80.15506 | 5357 ft | 295 kts | 279° |
| 2026-04-22 10:19 | 13.05779 | 80.13434 | 6340 ft | 295 kts | 280° |
| 2026-04-22 10:19 | 13.06120 | 80.11348 | 7192 ft | 299 kts | 281° |
| 2026-04-22 10:19 | 13.06486 | 80.09231 | 8033 ft | 303 kts | 282° |
| 2026-04-22 10:20 | 13.06872 | 80.07096 | 8888 ft | 307 kts | 282° |
| 2026-04-22 10:20 | 13.07284 | 80.04931 | 9726 ft | 311 kts | 283° |
| 2026-04-22 10:20 | 13.07717 | 80.02744 | 10291 ft | 325 kts | 283° |
| 2026-04-22 10:20 | 13.08192 | 80.00378 | 10473 ft | 352 kts | 283° |
| 2026-04-22 10:21 | 13.08686 | 79.97916 | 10832 ft | 367 kts | 283° |
| 2026-04-22 10:21 | 13.09200 | 79.95333 | 11515 ft | 371 kts | 283° |
| 2026-04-22 10:21 | 13.09716 | 79.92729 | 12282 ft | 374 kts | 283° |
| 2026-04-22 10:21 | 13.10234 | 79.90105 | 13013 ft | 377 kts | 283° |
| 2026-04-22 10:22 | 13.10757 | 79.87452 | 13716 ft | 381 kts | 283° |
| 2026-04-22 10:22 | 13.11284 | 79.84779 | 14404 ft | 382 kts | 282° |
| 2026-04-22 10:22 | 13.11811 | 79.82103 | 15143 ft | 382 kts | 282° |
| 2026-04-22 10:22 | 13.12338 | 79.79424 | 15791 ft | 385 kts | 282° |
| 2026-04-22 10:23 | 13.12862 | 79.76764 | 16482 ft | 385 kts | 282° |
| 2026-04-22 10:23 | 13.13390 | 79.74075 | 17278 ft | 383 kts | 281° |
| 2026-04-22 10:23 | 13.13916 | 79.71399 | 18045 ft | 383 kts | 281° |
| 2026-04-22 10:23 | 13.14446 | 79.68701 | 18490 ft | 388 kts | 281° |
| 2026-04-22 10:24 | 13.14981 | 79.65978 | 19052 ft | 390 kts | 281° |
| 2026-04-22 10:24 | 13.15520 | 79.63234 | 19458 ft | 396 kts | 281° |
| 2026-04-22 10:24 | 13.16066 | 79.60447 | 19764 ft | 400 kts | 281° |
| 2026-04-22 10:24 | 13.16622 | 79.57613 | 19771 ft | 411 kts | 281° |
| 2026-04-22 10:25 | 13.17193 | 79.54694 | 19791 ft | 422 kts | 281° |
| 2026-04-22 10:25 | 13.17776 | 79.51718 | 19795 ft | 428 kts | 281° |
| 2026-04-22 10:25 | 13.18366 | 79.48704 | 19790 ft | 430 kts | 281° |
| 2026-04-22 10:25 | 13.18954 | 79.45698 | 19787 ft | 429 kts | 281° |
| 2026-04-22 10:26 | 13.19542 | 79.42691 | 19792 ft | 430 kts | 281° |
| 2026-04-22 10:26 | 13.20131 | 79.39680 | 19795 ft | 430 kts | 281° |
| 2026-04-22 10:26 | 13.20709 | 79.36718 | 19791 ft | 429 kts | 281° |
| 2026-04-22 10:26 | 13.21296 | 79.33711 | 19791 ft | 429 kts | 281° |
| 2026-04-22 10:27 | 13.21883 | 79.30702 | 19794 ft | 428 kts | 280° |
| 2026-04-22 10:27 | 13.22467 | 79.27702 | 19805 ft | 428 kts | 280° |
| 2026-04-22 10:27 | 13.23050 | 79.24710 | 19808 ft | 427 kts | 280° |
| 2026-04-22 10:27 | 13.23632 | 79.21716 | 19803 ft | 427 kts | 280° |
| 2026-04-22 10:28 | 13.24213 | 79.18726 | 19807 ft | 427 kts | 281° |
| 2026-04-22 10:28 | 13.24795 | 79.15730 | 19805 ft | 428 kts | 280° |
| 2026-04-22 10:28 | 13.25379 | 79.12727 | 19825 ft | 428 kts | 280° |
| 2026-04-22 10:28 | 13.25953 | 79.09765 | 19821 ft | 429 kts | 280° |
| 2026-04-22 10:29 | 13.26535 | 79.06766 | 19821 ft | 428 kts | 280° |
| 2026-04-22 10:29 | 13.27123 | 79.03731 | 19817 ft | 428 kts | 280° |
| 2026-04-22 10:29 | 13.27694 | 79.00785 | 19816 ft | 427 kts | 280° |
| 2026-04-22 10:29 | 13.28259 | 78.97868 | 19834 ft | 426 kts | 280° |
| 2026-04-22 10:30 | 13.28836 | 78.94881 | 19837 ft | 426 kts | 280° |
| 2026-04-22 10:30 | 13.29383 | 78.91895 | 19832 ft | 425 kts | 276° |
| 2026-04-22 10:30 | 13.29417 | 78.88877 | 19841 ft | 423 kts | 266° |
| 2026-04-22 10:30 | 13.29182 | 78.85867 | 19839 ft | 423 kts | 264° |
| 2026-04-22 10:31 | 13.28906 | 78.82856 | 19858 ft | 424 kts | 264° |
| 2026-04-22 10:31 | 13.28634 | 78.79834 | 19855 ft | 425 kts | 264° |
| 2026-04-22 10:31 | 13.28381 | 78.76809 | 19858 ft | 425 kts | 265° |
| 2026-04-22 10:31 | 13.28144 | 78.73775 | 19851 ft | 426 kts | 265° |
| 2026-04-22 10:32 | 13.27921 | 78.70785 | 19848 ft | 426 kts | 265° |
| 2026-04-22 10:32 | 13.27701 | 78.67750 | 19868 ft | 426 kts | 265° |
| 2026-04-22 10:32 | 13.27483 | 78.64714 | 19860 ft | 426 kts | 265° |
| 2026-04-22 10:32 | 13.27264 | 78.61684 | 19863 ft | 426 kts | 265° |
| 2026-04-22 10:33 | 13.27045 | 78.58656 | 19861 ft | 425 kts | 265° |
| 2026-04-22 10:33 | 13.26825 | 78.55623 | 19863 ft | 425 kts | 265° |
| 2026-04-22 10:33 | 13.26605 | 78.52598 | 19863 ft | 425 kts | 265° |
| 2026-04-22 10:33 | 13.26384 | 78.49576 | 19865 ft | 425 kts | 265° |
| 2026-04-22 10:34 | 13.26188 | 78.46578 | 19861 ft | 425 kts | 268° |
| 2026-04-22 10:34 | 13.26441 | 78.43544 | 19874 ft | 426 kts | 278° |
| 2026-04-22 10:34 | 13.26961 | 78.40548 | 19864 ft | 427 kts | 279° |
| 2026-04-22 10:34 | 13.27503 | 78.37592 | 19860 ft | 413 kts | 279° |
| 2026-04-22 10:35 | 13.28011 | 78.34733 | 19555 ft | 403 kts | 279° |
| 2026-04-22 10:35 | 13.28487 | 78.31915 | 19109 ft | 399 kts | 278° |
| 2026-04-22 10:35 | 13.28939 | 78.29123 | 18595 ft | 395 kts | 278° |
| 2026-04-22 10:35 | 13.29380 | 78.26349 | 18020 ft | 393 kts | 278° |
| 2026-04-22 10:36 | 13.29818 | 78.23587 | 17417 ft | 391 kts | 278° |
| 2026-04-22 10:36 | 13.30254 | 78.20839 | 16844 ft | 388 kts | 279° |
| 2026-04-22 10:36 | 13.30571 | 78.18094 | 16205 ft | 388 kts | 273° |
| 2026-04-22 10:36 | 13.30645 | 78.15323 | 15619 ft | 388 kts | 271° |
| 2026-04-22 10:37 | 13.30637 | 78.12583 | 15056 ft | 387 kts | 270° |
| 2026-04-22 10:37 | 13.30617 | 78.07065 | 13966 ft | 386 kts | 271° |
| 2026-04-22 10:37 | 13.30630 | 78.04310 | 13471 ft | 383 kts | 271° |
| 2026-04-22 10:38 | 13.30656 | 78.01623 | 13272 ft | 371 kts | 271° |
| 2026-04-22 10:38 | 13.30687 | 77.99095 | 13107 ft | 360 kts | 271° |
| 2026-04-22 10:38 | 13.30721 | 77.96559 | 12951 ft | 349 kts | 272° |
| 2026-04-22 10:38 | 13.30755 | 77.94098 | 12802 ft | 340 kts | 272° |
| 2026-04-22 10:39 | 13.30788 | 77.91736 | 12666 ft | 330 kts | 271° |
| 2026-04-22 10:39 | 13.30820 | 77.89410 | 12520 ft | 321 kts | 271° |
| 2026-04-22 10:39 | 13.30851 | 77.87144 | 12401 ft | 313 kts | 271° |
| 2026-04-22 10:39 | 13.30882 | 77.84933 | 12262 ft | 305 kts | 272° |
| 2026-04-22 10:40 | 13.30911 | 77.82774 | 12143 ft | 298 kts | 271° |
| 2026-04-22 10:40 | 13.30939 | 77.80674 | 12041 ft | 290 kts | 271° |
| 2026-04-22 10:40 | 13.30966 | 77.78624 | 11905 ft | 283 kts | 272° |
| 2026-04-22 10:40 | 13.30988 | 77.76632 | 11635 ft | 283 kts | 271° |
| 2026-04-22 10:41 | 13.31005 | 77.74611 | 11355 ft | 282 kts | 271° |
| 2026-04-22 10:41 | 13.31021 | 77.72590 | 11054 ft | 283 kts | 271° |
| 2026-04-22 10:41 | 13.31037 | 77.70568 | 10757 ft | 284 kts | 271° |
| 2026-04-22 10:41 | 13.31054 | 77.68536 | 10457 ft | 285 kts | 271° |
| 2026-04-22 10:42 | 13.31071 | 77.66491 | 10126 ft | 287 kts | 271° |
| 2026-04-22 10:42 | 13.31087 | 77.64440 | 9825 ft | 288 kts | 271° |
| 2026-04-22 10:42 | 13.31103 | 77.62375 | 9475 ft | 289 kts | 271° |
| 2026-04-22 10:42 | 13.31118 | 77.60309 | 9140 ft | 290 kts | 270° |
| 2026-04-22 10:43 | 13.31133 | 77.58236 | 8819 ft | 290 kts | 271° |
| 2026-04-22 10:43 | 13.31149 | 77.56168 | 8509 ft | 290 kts | 271° |
| 2026-04-22 10:43 | 13.31164 | 77.54089 | 8179 ft | 291 kts | 271° |
| 2026-04-22 10:43 | 13.31180 | 77.52011 | 7882 ft | 291 kts | 271° |
| 2026-04-22 10:44 | 13.31195 | 77.49925 | 7551 ft | 292 kts | 271° |
| 2026-04-22 10:44 | 13.31210 | 77.47834 | 7228 ft | 293 kts | 270° |
| 2026-04-22 10:44 | 13.31224 | 77.45770 | 7034 ft | 289 kts | 271° |
| 2026-04-22 10:44 | 13.31241 | 77.43740 | 6987 ft | 278 kts | 270° |
| 2026-04-22 10:45 | 13.31255 | 77.41786 | 6962 ft | 268 kts | 271° |
| 2026-04-22 10:45 | 13.31264 | 77.39915 | 6965 ft | 256 kts | 270° |
| 2026-04-22 10:45 | 13.31473 | 77.38136 | 6966 ft | 248 kts | 290° |
| 2026-04-22 10:45 | 13.31867 | 77.36449 | 6939 ft | 248 kts | 269° |
| 2026-04-22 10:46 | 13.31383 | 77.34784 | 6973 ft | 247 kts | 231° |
| 2026-04-22 10:46 | 13.30044 | 77.33760 | 6970 ft | 240 kts | 192° |
| 2026-04-22 10:46 | 13.28403 | 77.33706 | 6972 ft | 236 kts | 168° |
| 2026-04-22 10:46 | 13.26810 | 77.34081 | 6980 ft | 234 kts | 158° |
| 2026-04-22 10:47 | 13.25345 | 77.34827 | 6979 ft | 235 kts | 144° |
| 2026-04-22 10:47 | 13.24053 | 77.35841 | 6980 ft | 233 kts | 133° |
| 2026-04-22 10:47 | 13.23022 | 77.37090 | 6962 ft | 226 kts | 120° |
| 2026-04-22 10:47 | 13.22317 | 77.38455 | 6978 ft | 212 kts | 110° |
| 2026-04-22 10:48 | 13.21861 | 77.39819 | 6968 ft | 193 kts | 104° |
| 2026-04-22 10:48 | 13.21557 | 77.41098 | 6958 ft | 180 kts | 101° |
| 2026-04-22 10:48 | 13.21336 | 77.42346 | 6991 ft | 177 kts | 97° |
| 2026-04-22 10:48 | 13.21149 | 77.43602 | 6991 ft | 178 kts | 96° |
| 2026-04-22 10:49 | 13.21013 | 77.44852 | 6972 ft | 177 kts | 93° |
| 2026-04-22 10:49 | 13.20942 | 77.46123 | 6960 ft | 179 kts | 91° |
| 2026-04-22 10:49 | 13.20907 | 77.47408 | 6753 ft | 177 kts | 90° |
| 2026-04-22 10:49 | 13.20888 | 77.48621 | 6588 ft | 161 kts | 89° |
| 2026-04-22 10:50 | 13.20876 | 77.49709 | 6377 ft | 145 kts | 89° |
| 2026-04-22 10:50 | 13.20870 | 77.50373 | 6266 ft | 140 kts | 89° |
| 2026-04-22 10:50 | 13.20857 | 77.51737 | 6019 ft | 144 kts | 90° |
| 2026-04-22 10:50 | 13.20852 | 77.52408 | 5905 ft | 140 kts | 89° |
| 2026-04-22 10:51 | 13.20844 | 77.53414 | 5751 ft | 141 kts | 89° |
| 2026-04-22 10:51 | 13.20836 | 77.54428 | 5550 ft | 142 kts | 91° |
| 2026-04-22 10:51 | 13.20826 | 77.55423 | 5381 ft | 137 kts | 89° |
| 2026-04-22 10:51 | 13.20818 | 77.56399 | 5227 ft | 139 kts | 89° |
| 2026-04-22 10:52 | 13.20808 | 77.57727 | 4961 ft | 143 kts | 89° |
| 2026-04-22 10:52 | 13.20800 | 77.58417 | 4873 ft | 144 kts | 90° |
| 2026-04-22 10:52 | 13.20791 | 77.59432 | 4673 ft | 138 kts | 90° |
| 2026-04-22 10:52 | 13.20784 | 77.60384 | 4498 ft | 137 kts | 90° |
| 2026-04-22 10:53 | 13.20773 | 77.61376 | 4351 ft | 142 kts | 91° |
| 2026-04-22 10:53 | 13.20770 | 77.62388 | 4159 ft | 139 kts | 91° |
| 2026-04-22 10:53 | 13.20760 | 77.63365 | 3975 ft | 135 kts | 92° |
| 2026-04-22 10:53 | 13.20751 | 77.64334 | 3821 ft | 138 kts | 91° |
| 2026-04-22 10:54 | 13.20743 | 77.65300 | 3666 ft | 131 kts | 91° |
| 2026-04-22 10:54 | 13.20735 | 77.66247 | 3465 ft | 137 kts | 89° |
| 2026-04-22 10:54 | 13.20728 | 77.67202 | 3306 ft | 138 kts | 90° |
| 2026-04-22 10:54 | 13.20722 | 77.68189 | 3107 ft | 137 kts | 90° |
| 2026-04-22 10:55 | 13.20709 | 77.69158 | 2973 ft | 131 kts | 90° |
| 2026-04-22 10:55 | 13.20704 | 77.69993 | 2968 ft | 101 kts | 90° |
| 2026-04-22 10:55 | 13.20700 | 77.70589 | 2968 ft | 66 kts | 90° |
| 2026-04-22 10:55 | 13.20683 | 77.70871 | 2967 ft | 29 kts | 104° |
| 2026-04-22 10:56 | 13.20605 | 77.71052 | 2958 ft | 27 kts | 122° |
| 2026-04-22 10:56 | 13.20531 | 77.71180 | 2960 ft | 10 kts | 120° |
| 2026-04-22 10:56 | 13.20518 | 77.71246 | 2961 ft | 9 kts | 105° |
| 2026-04-22 10:56 | 13.20464 | 77.71275 | 2965 ft | 10 kts | 188° |
| 2026-04-22 10:57 | 13.20398 | 77.71275 | 2967 ft | 9 kts | 177° |
| 2026-04-22 10:57 | 13.20333 | 77.71275 | 2967 ft | 9 kts | 180° |
| 2026-04-22 10:57 | 13.20270 | 77.71273 | 2967 ft | 9 kts | 188° |
| 2026-04-22 10:57 | 13.20239 | 77.71224 | 2967 ft | 9 kts | 265° |
| 2026-04-22 10:58 | 13.20240 | 77.71161 | 2967 ft | 9 kts | 270° |
| 2026-04-22 10:58 | 13.20240 | 77.71100 | 2967 ft | 8 kts | 273° |
| 2026-04-22 10:58 | 13.20241 | 77.71041 | 2968 ft | 8 kts | 269° |
| 2026-04-22 10:58 | 13.20242 | 77.70983 | 2968 ft | 8 kts | 271° |
| 2026-04-22 10:59 | 13.20214 | 77.70959 | 2968 ft | 6 kts | 179° |
| 2026-04-22 10:59 | 13.20175 | 77.70959 | 2967 ft | 0 kts | 180° |